Main page
METAR-TAF:

METAR-TAF

Airports :

Shuttle Landing Facility

Kennedy Space Center, Florida, United States

latitude: 28-37N, longitude: 080-43W, elevation: 10 ft

Current weather observation

The report was made 50 minutes ago, at 05:56 UTC
Wind 7 mph from the East/Southeast
Temperature 73°F
Humidity 65%
Pressure 30.12 in. Hg
Visibility: 10 miles
Clear sky

METAR: KTTS 180556Z AUTO 11006KT 10SM CLR 23/16 A3012 RMK AO2 SLP204 60000 T02260164 10235 20214 57010 $

Time: 02:46 (06:46 UTC)


TAF: missing

Weather observations and forecasts of more than 4000 airports (METAR and TAF reports).

The available stations are represented by yellow and red dots on the map.

Hover mouse over dot to see the name of the station.

Then click to see weather observations and forecasts.

To change the map : click on the green buttons with a black cross to zoom in, on the green button with a dash to zoom out, or on the green arrows for adjacent maps.


METAR-TAF: